Time;durP1;ratioP1;P1;durP2;ratioP2;P2;SDS_P1;SDS_P2;PMS_P1;PMS_P2;Temp;Humidity;BMP_temperature;BMP_pressure;BME280_temperature;BME280_humidity;BME280_pressure;Samples;Min_cycle;Max_cycle;Signal;HPM_P1;HPM_P2
2022/12/12 00:00:37;;;;;;;21.13;11.87;;;4.60;70.30;;;;;;5104639;28;20115;-65
2022/12/12 00:03:03;;;;;;;21.27;11.90;;;4.70;70.30;;;;;;5109228;27;20024;-65
2022/12/12 00:05:29;;;;;;;20.13;12.53;;;4.60;70.20;;;;;;5122775;27;20026;-65
2022/12/12 00:07:55;;;;;;;20.63;11.53;;;4.60;70.10;;;;;;5112420;28;20427;-65
2022/12/12 00:10:21;;;;;;;21.60;12.03;;;4.60;70.00;;;;;;5110120;28;20058;-65
2022/12/12 00:12:46;;;;;;;21.73;11.33;;;4.60;70.00;;;;;;5103676;28;20032;-65
2022/12/12 00:15:12;;;;;;;19.87;12.07;;;4.60;70.00;;;;;;5105055;28;20031;-65
2022/12/12 00:17:38;;;;;;;21.97;11.67;;;4.60;70.00;;;;;;5101038;28;20483;-65
2022/12/12 00:20:04;;;;;;;20.83;12.00;;;4.60;70.70;;;;;;5111141;28;20470;-65
2022/12/12 00:22:30;;;;;;;19.43;11.77;;;4.70;70.10;;;;;;5099598;28;20024;-65
2022/12/12 00:24:56;;;;;;;23.93;13.37;;;4.60;70.00;;;;;;5114987;28;20110;-65
2022/12/12 00:27:22;;;;;;;20.80;11.37;;;4.70;70.10;;;;;;5097603;28;20047;-65
2022/12/12 00:29:52;;;;;;;21.67;13.03;;;4.70;70.00;;;;;;5113296;28;20511;-65
2022/12/12 00:32:18;;;;;;;22.70;12.30;;;4.70;70.00;;;;;;5114117;28;20333;-65
2022/12/12 00:34:44;;;;;;;21.83;11.67;;;4.70;70.10;;;;;;5108474;28;20032;-65
2022/12/12 00:37:09;;;;;;;21.07;13.03;;;4.70;70.10;;;;;;5111556;27;20042;-65
2022/12/12 00:39:35;;;;;;;22.37;12.83;;;4.70;70.10;;;;;;5109303;27;20024;-65
2022/12/12 00:42:01;;;;;;;22.47;12.70;;;4.70;70.10;;;;;;5104901;28;20323;-65
2022/12/12 00:44:26;;;;;;;23.63;13.20;;;4.60;70.10;;;;;;5105830;28;20043;-65
2022/12/12 00:46:52;;;;;;;20.93;12.93;;;4.60;70.10;;;;;;5102862;28;20025;-65
2022/12/12 00:49:18;;;;;;;22.53;12.23;;;4.70;70.20;;;;;;5104758;28;20031;-65
2022/12/12 00:51:43;;;;;;;22.40;12.90;;;4.70;70.20;;;;;;5106469;27;20024;-65
2022/12/12 00:54:10;;;;;;;21.60;12.47;;;4.70;70.20;;;;;;5117856;27;20038;-65
2022/12/12 00:56:35;;;;;;;21.30;12.23;;;4.70;70.30;;;;;;5102735;28;20024;-65
2022/12/12 00:59:02;;;;;;;22.37;12.63;;;4.70;70.20;;;;;;5107823;28;20027;-65
2022/12/12 01:01:29;;;;;;;21.70;12.30;;;4.70;70.20;;;;;;5105125;28;20027;-65
2022/12/12 01:03:55;;;;;;;21.00;12.93;;;4.70;70.10;;;;;;5102918;28;20348;-65
2022/12/12 01:06:21;;;;;;;20.50;11.67;;;4.60;70.10;;;;;;5120163;27;20089;-65
2022/12/12 01:08:47;;;;;;;21.50;12.00;;;4.60;70.10;;;;;;5097260;28;20020;-65
2022/12/12 01:11:14;;;;;;;24.27;13.30;;;4.60;70.10;;;;;;5107352;28;20127;-65
2022/12/12 01:13:41;;;;;;;23.27;13.33;;;4.60;70.10;;;;;;5098885;28;20107;-65
2022/12/12 01:16:07;;;;;;;20.87;12.43;;;4.60;70.10;;;;;;5109296;28;20027;-65
2022/12/12 01:18:33;;;;;;;22.67;12.50;;;4.60;70.10;;;;;;5098761;28;20050;-65
2022/12/12 01:20:59;;;;;;;25.90;13.87;;;4.60;70.10;;;;;;5103257;27;20119;-65
2022/12/12 01:23:26;;;;;;;22.67;12.83;;;4.60;70.10;;;;;;5099507;28;20030;-65
2022/12/12 01:26:05;;;;;;;25.90;13.50;;;4.60;70.10;;;;;;5093930;28;20024;-65
2022/12/12 01:28:30;;;;;;;24.67;14.07;;;4.60;70.10;;;;;;5108354;28;20432;-64
2022/12/12 01:30:56;;;;;;;23.10;13.27;;;4.60;70.10;;;;;;5106551;28;20093;-64
2022/12/12 01:33:22;;;;;;;22.10;13.13;;;4.60;70.10;;;;;;5104473;28;20075;-64
2022/12/12 01:35:48;;;;;;;21.37;12.37;;;4.60;70.10;;;;;;5110376;28;20050;-64
2022/12/12 01:38:13;;;;;;;23.70;13.07;;;4.60;70.10;;;;;;5108603;28;20035;-64
2022/12/12 01:40:39;;;;;;;20.17;12.13;;;4.60;70.10;;;;;;5109728;27;20015;-64
2022/12/12 01:43:11;;;;;;;22.30;13.57;;;4.60;70.10;;;;;;5103597;28;20017;-64
2022/12/12 01:45:59;;;;;;;24.50;12.80;;;4.60;70.10;;;;;;5109287;28;20032;-64
2022/12/12 01:48:32;;;;;;;23.27;12.80;;;4.60;70.00;;;;;;5101237;28;20032;-64
2022/12/12 01:51:02;;;;;;;22.70;13.00;;;4.60;70.10;;;;;;5104256;28;20038;-65
2022/12/12 01:53:31;;;;;;;23.03;13.87;;;4.60;70.10;;;;;;5105075;27;20043;-64
2022/12/12 01:56:00;;;;;;;22.53;12.80;;;4.60;70.10;;;;;;5118624;27;20020;-65
2022/12/12 01:58:26;;;;;;;20.97;11.93;;;4.60;70.10;;;;;;5102273;28;20028;-65
2022/12/12 02:00:52;;;;;;;24.10;13.77;;;4.60;70.20;;;;;;5100968;28;20023;-64
2022/12/12 02:03:18;;;;;;;20.27;12.00;;;4.60;70.10;;;;;;5101400;28;20084;-64
2022/12/12 02:05:58;;;;;;;23.47;13.80;;;4.60;70.10;;;;;;5111364;28;20023;-64
2022/12/12 02:08:25;;;;;;;22.17;13.10;;;4.60;70.10;;;;;;5114505;27;20028;-64
2022/12/12 02:10:50;;;;;;;22.53;12.37;;;4.60;70.20;;;;;;5104742;28;21216;-64
2022/12/12 02:13:22;;;;;;;23.37;13.07;;;4.60;70.30;;;;;;5102883;28;20028;-64
2022/12/12 02:16:18;;;;;;;23.13;13.05;;;4.50;70.20;;;;;;5105574;28;20036;-64
2022/12/12 02:18:53;;;;;;;21.23;12.30;;;4.50;70.10;;;;;;5097405;28;20044;-64
2022/12/12 02:21:37;;;;;;;20.50;12.33;;;4.60;70.20;;;;;;5106488;28;20027;-64
2022/12/12 02:24:14;;;;;;;21.53;12.00;;;4.60;70.30;;;;;;5100786;27;20024;-64
2022/12/12 02:26:54;;;;;;;21.73;12.57;;;4.50;70.20;;;;;;5114108;27;20115;-64
2022/12/12 02:29:57;;;;;;;21.27;11.93;;;4.50;70.30;;;;;;5105589;27;20029;-64
2022/12/12 02:32:36;;;;;;;22.40;12.10;;;4.50;70.30;;;;;;5110140;27;20058;-64
2022/12/12 02:35:43;;;;;;;22.80;13.57;;;4.50;70.30;;;;;;5110380;27;20012;-64
2022/12/12 02:38:12;;;;;;;22.03;12.97;;;4.50;70.30;;;;;;5101899;28;20052;-64
2022/12/12 02:40:46;;;;;;;20.83;13.27;;;4.50;70.50;;;;;;5098653;28;20028;-64
2022/12/12 02:43:25;;;;;;;21.47;12.03;;;4.50;70.40;;;;;;5104328;28;20039;-64
2022/12/12 02:45:58;;;;;;;20.93;12.00;;;4.50;70.40;;;;;;5108209;28;20076;-65
2022/12/12 02:48:40;;;;;;;22.87;12.87;;;4.50;70.50;;;;;;5101203;28;20029;-65
2022/12/12 02:51:06;;;;;;;;;;;4.50;70.50;;;;;;5114456;27;20305;-64
2022/12/12 02:53:32;;;;;;;18.27;10.57;;;4.50;70.50;;;;;;5113326;27;19915;-64
2022/12/12 02:56:28;;;;;;;19.17;11.17;;;4.50;70.50;;;;;;5101009;28;20114;-64
2022/12/12 02:58:54;;;;;;;21.13;11.40;;;4.50;70.40;;;;;;5100812;28;20035;-64
2022/12/12 03:01:33;;;;;;;20.57;11.10;;;4.50;70.40;;;;;;5096048;28;20069;-64
2022/12/12 03:07:48;;;;;;;20.07;11.27;;;4.50;70.30;;;;;;5108676;28;20028;-65
2022/12/12 03:10:38;;;;;;;19.53;12.03;;;4.50;70.30;;;;;;5099795;28;20066;-64
2022/12/12 03:13:31;;;;;;;21.13;11.47;;;4.50;70.30;;;;;;5107310;28;20046;-64
2022/12/12 03:16:31;;;;;;;23.40;11.57;;;4.50;70.20;;;;;;5113268;28;20091;-64
2022/12/12 03:18:59;;;;;;;19.07;10.93;;;4.50;70.20;;;;;;5097872;28;20383;-64
2022/12/12 03:21:53;;;;;;;20.43;11.63;;;4.50;70.30;;;;;;5113639;27;20137;-64
2022/12/12 03:24:31;;;;;;;19.17;11.80;;;4.50;70.30;;;;;;5105566;28;20043;-65
2022/12/12 03:27:03;;;;;;;18.47;11.27;;;4.50;70.30;;;;;;5105090;28;20451;-64
2022/12/12 03:29:52;;;;;;;20.95;11.52;;;4.50;70.30;;;;;;5113886;28;20032;-64
2022/12/12 03:32:24;;;;;;;19.70;11.30;;;4.50;70.30;;;;;;5111038;27;20020;-64
2022/12/12 03:34:56;;;;;;;20.58;11.18;;;4.40;70.30;;;;;;5100913;28;20035;-64
2022/12/12 03:37:30;;;;;;;19.50;11.23;;;4.40;70.40;;;;;;5102512;28;20059;-64
2022/12/12 03:40:01;;;;;;;21.83;11.77;;;4.40;70.40;;;;;;5098551;28;20028;-65
2022/12/12 03:42:33;;;;;;;19.10;10.90;;;4.30;70.40;;;;;;5096913;28;20034;-64
2022/12/12 03:45:13;;;;;;;20.77;11.50;;;4.30;70.40;;;;;;5110742;28;20362;-64
2022/12/12 03:47:51;;;;;;;21.20;11.30;;;4.30;70.50;;;;;;5107808;28;20045;-65
2022/12/12 03:50:23;;;;;;;19.43;10.90;;;4.30;70.50;;;;;;5098195;28;20448;-64
2022/12/12 03:52:56;;;;;;;;;;;4.20;70.60;;;;;;5107328;28;20132;-64
2022/12/12 03:55:46;;;;;;;17.03;8.83;;;4.20;70.70;;;;;;5107546;28;19911;-64
2022/12/12 03:58:26;;;;;;;18.47;10.00;;;4.10;70.70;;;;;;5094374;28;20032;-64
2022/12/12 04:00:54;;;;;;;20.70;10.33;;;4.10;70.80;;;;;;5099034;28;20028;-64
2022/12/12 04:03:22;;;;;;;19.20;11.00;;;4.00;70.80;;;;;;5112388;28;20066;-64
2022/12/12 04:06:27;;;;;;;20.73;11.63;;;4.00;70.90;;;;;;5103108;28;20107;-64
2022/12/12 04:15:36;;;;;;;18.57;10.23;;;3.90;71.00;;;;;;5107887;28;19976;-64
2022/12/12 04:18:23;;;;;;;17.57;9.17;;;3.80;71.10;;;;;;5105526;28;20434;-65
2022/12/12 04:24:12;;;;;;;18.03;10.20;;;3.80;71.20;;;;;;5106344;28;20443;-65
2022/12/12 04:26:54;;;;;;;17.67;10.07;;;3.80;71.30;;;;;;5095708;28;20078;-64
2022/12/12 04:29:25;;;;;;;17.20;10.33;;;3.70;71.30;;;;;;5106267;28;20015;-64
2022/12/12 04:31:59;;;;;;;16.70;9.88;;;3.70;71.30;;;;;;5105232;28;20060;-64
2022/12/12 04:34:42;;;;;;;19.13;10.73;;;3.70;71.40;;;;;;5109373;28;20372;-64
2022/12/12 04:37:12;;;;;;;19.67;11.23;;;3.70;71.50;;;;;;5105908;28;20028;-65
2022/12/12 04:39:38;;;;;;;18.53;10.37;;;3.70;71.50;;;;;;5106801;28;20114;-65
2022/12/12 04:42:07;;;;;;;17.70;10.43;;;3.70;71.50;;;;;;5112224;28;20106;-64
2022/12/12 04:44:35;;;;;;;20.83;10.40;;;3.70;71.60;;;;;;5112466;28;20015;-64
2022/12/12 04:47:04;;;;;;;19.23;10.13;;;3.70;71.50;;;;;;5110840;28;20081;-65
2022/12/12 04:49:32;;;;;;;20.93;11.57;;;3.70;71.50;;;;;;5113221;28;20032;-64
2022/12/12 04:52:06;;;;;;;19.30;10.77;;;3.70;71.50;;;;;;5105636;28;20042;-64
2022/12/12 04:55:01;;;;;;;19.57;10.87;;;3.60;71.50;;;;;;5101278;28;20461;-64
2022/12/12 04:57:33;;;;;;;21.27;12.30;;;3.70;71.50;;;;;;5103534;28;20024;-64
2022/12/12 04:59:59;;;;;;;18.47;10.53;;;3.60;71.50;;;;;;5108113;28;20028;-64
2022/12/12 05:02:52;;;;;;;21.03;11.00;;;3.60;71.50;;;;;;5104396;27;20073;-64
2022/12/12 05:05:28;;;;;;;19.00;10.67;;;3.60;71.50;;;;;;5102311;28;20087;-64
2022/12/12 05:08:06;;;;;;;20.63;11.27;;;3.60;71.50;;;;;;5104084;27;20031;-64
2022/12/12 05:10:32;;;;;;;21.17;10.57;;;3.60;71.50;;;;;;5103727;27;20073;-64
2022/12/12 05:13:00;;;;;;;18.87;10.77;;;3.60;71.50;;;;;;5102370;28;20020;-64
2022/12/12 05:15:27;;;;;;;20.17;11.37;;;3.60;71.50;;;;;;5101919;28;20027;-64
2022/12/12 05:17:58;;;;;;;19.37;11.27;;;3.60;71.50;;;;;;5096462;28;20376;-64
2022/12/12 05:20:24;;;;;;;22.13;12.43;;;3.50;71.40;;;;;;5109324;28;20036;-64
2022/12/12 05:22:50;;;;;;;19.90;10.57;;;3.50;71.40;;;;;;5102215;28;20089;-64
2022/12/12 05:25:15;;;;;;;19.47;11.00;;;3.50;71.50;;;;;;5114874;28;20062;-64
2022/12/12 05:27:41;;;;;;;22.13;11.43;;;3.50;71.50;;;;;;5115169;28;20084;-64
2022/12/12 05:30:08;;;;;;;20.00;11.60;;;3.50;71.50;;;;;;5115093;27;20023;-66
2022/12/12 05:32:34;;;;;;;20.73;11.83;;;3.50;71.50;;;;;;5109396;27;20075;-66
2022/12/12 05:35:00;;;;;;;22.00;12.43;;;3.50;71.60;;;;;;5105397;28;20024;-65
2022/12/12 05:37:25;;;;;;;20.23;11.43;;;3.40;71.50;;;;;;5114204;28;20035;-64
2022/12/12 05:39:51;;;;;;;20.13;10.37;;;3.40;71.60;;;;;;5112680;28;20031;-64
2022/12/12 05:42:17;;;;;;;19.60;10.87;;;3.40;71.60;;;;;;5107875;27;20413;-65
2022/12/12 05:44:43;;;;;;;21.43;11.60;;;3.40;71.70;;;;;;5114989;28;20491;-64
2022/12/12 05:47:08;;;;;;;19.03;10.73;;;3.30;71.70;;;;;;5102938;28;20037;-64
2022/12/12 05:49:34;;;;;;;21.00;11.10;;;3.30;71.70;;;;;;5113067;28;20036;-64
2022/12/12 05:52:00;;;;;;;19.80;11.17;;;3.30;71.80;;;;;;5105163;27;20122;-64
2022/12/12 05:54:26;;;;;;;21.63;11.37;;;3.30;71.90;;;;;;5110556;28;20346;-65
2022/12/12 05:56:52;;;;;;;19.37;11.07;;;3.20;71.90;;;;;;5112138;28;20107;-64
2022/12/12 05:59:18;;;;;;;19.70;10.77;;;3.20;71.90;;;;;;5110502;28;20039;-64
2022/12/12 06:01:44;;;;;;;20.70;11.00;;;3.20;71.90;;;;;;5109704;28;20059;-64
2022/12/12 06:04:10;;;;;;;20.33;10.97;;;3.20;71.80;;;;;;5114313;28;20035;-64
2022/12/12 06:06:35;;;;;;;19.97;11.63;;;3.20;71.90;;;;;;5096429;28;20020;-64
2022/12/12 06:09:02;;;;;;;23.10;11.80;;;3.20;71.90;;;;;;5109223;28;20117;-64
2022/12/12 06:11:28;;;;;;;21.13;11.67;;;3.20;71.90;;;;;;5098439;28;20103;-64
2022/12/12 06:13:54;;;;;;;20.60;11.47;;;3.20;71.90;;;;;;5101881;28;20513;-64
2022/12/12 06:16:20;;;;;;;19.10;10.40;;;3.20;72.00;;;;;;5109595;28;20027;-64
2022/12/12 06:18:52;;;;;;;20.40;11.17;;;3.20;72.00;;;;;;5100559;28;20089;-64
2022/12/12 06:21:19;;;;;;;20.00;10.57;;;3.10;71.90;;;;;;5110173;28;20114;-64
2022/12/12 06:23:46;;;;;;;21.20;10.90;;;3.10;72.00;;;;;;5099234;28;20092;-65
2022/12/12 06:26:14;;;;;;;20.17;11.10;;;3.10;72.10;;;;;;5103129;27;20028;-64
2022/12/12 06:28:40;;;;;;;21.53;12.10;;;3.10;72.10;;;;;;5097268;28;20023;-64
2022/12/12 06:31:06;;;;;;;19.13;10.87;;;3.00;72.10;;;;;;5104883;28;20367;-64
2022/12/12 06:33:34;;;;;;;21.93;10.93;;;3.00;72.10;;;;;;5096011;28;20030;-64
2022/12/12 06:36:03;;;;;;;20.97;11.40;;;3.00;72.20;;;;;;5112562;28;20028;-64
2022/12/12 06:38:29;;;;;;;22.07;11.50;;;3.00;72.20;;;;;;5125627;27;20118;-64
2022/12/12 06:40:55;;;;;;;20.30;12.17;;;3.00;72.20;;;;;;5119732;27;20494;-64
2022/12/12 06:43:21;;;;;;;21.47;11.93;;;3.00;72.20;;;;;;5094130;28;20030;-64
2022/12/12 06:45:47;;;;;;;20.57;11.43;;;3.00;72.20;;;;;;5108454;28;20023;-64
2022/12/12 06:48:13;;;;;;;18.40;10.23;;;3.00;72.20;;;;;;5112926;28;20023;-64
2022/12/12 06:50:40;;;;;;;21.63;12.37;;;3.00;72.20;;;;;;5116775;27;20456;-64
2022/12/12 06:53:06;;;;;;;22.07;11.63;;;3.00;72.30;;;;;;5106845;28;20051;-64
2022/12/12 06:55:31;;;;;;;20.70;11.63;;;3.00;72.10;;;;;;5107053;28;20055;-64
2022/12/12 06:57:57;;;;;;;22.53;11.47;;;3.00;72.10;;;;;;5105539;28;20034;-64
2022/12/12 07:00:23;;;;;;;18.50;10.73;;;3.00;72.10;;;;;;5096907;28;20040;-64
2022/12/12 07:02:49;;;;;;;22.13;12.70;;;2.90;72.10;;;;;;5109630;28;20087;-64
2022/12/12 07:05:14;;;;;;;21.33;11.67;;;2.90;72.20;;;;;;5096654;28;20036;-64
2022/12/12 07:07:40;;;;;;;21.90;11.87;;;2.90;72.20;;;;;;5106746;28;20031;-64
2022/12/12 07:10:06;;;;;;;21.23;11.53;;;2.90;72.30;;;;;;5094517;28;20508;-64
2022/12/12 07:12:32;;;;;;;17.90;10.17;;;2.90;72.30;;;;;;5104555;28;20345;-64
2022/12/12 07:14:58;;;;;;;22.93;12.40;;;2.90;72.30;;;;;;5096294;28;20024;-64
2022/12/12 07:17:23;;;;;;;20.87;11.20;;;2.90;72.30;;;;;;5110814;28;20439;-63
2022/12/12 07:19:49;;;;;;;23.07;12.17;;;2.90;72.30;;;;;;5101814;27;20515;-64
2022/12/12 07:22:15;;;;;;;22.97;11.57;;;2.90;72.30;;;;;;5100198;28;20022;-65
2022/12/12 07:24:40;;;;;;;20.40;11.33;;;2.80;72.20;;;;;;5107075;28;20171;-67
2022/12/12 07:27:06;;;;;;;21.50;11.73;;;2.80;72.30;;;;;;5104946;28;20355;-66
2022/12/12 07:29:32;;;;;;;21.60;12.43;;;2.80;72.30;;;;;;5105257;28;20432;-66
2022/12/12 07:31:58;;;;;;;24.23;12.63;;;2.80;72.30;;;;;;5106741;28;20019;-64
2022/12/12 07:34:24;;;;;;;25.70;13.63;;;2.80;72.30;;;;;;5110977;28;20054;-64
2022/12/12 07:36:49;;;;;;;22.03;12.87;;;2.80;72.30;;;;;;5112554;28;20031;-64
2022/12/12 07:39:15;;;;;;;24.40;13.33;;;2.80;72.40;;;;;;5106852;28;20397;-67
2022/12/12 07:41:41;;;;;;;22.20;12.53;;;2.80;72.40;;;;;;5098375;28;20035;-67
2022/12/12 07:44:07;;;;;;;26.20;14.23;;;2.80;72.40;;;;;;5107391;28;20081;-66
2022/12/12 07:46:33;;;;;;;24.73;13.17;;;2.80;72.50;;;;;;5100268;28;20096;-66
2022/12/12 07:48:58;;;;;;;24.53;12.97;;;2.80;72.50;;;;;;5105705;27;20062;-66
2022/12/12 07:51:24;;;;;;;25.77;14.43;;;2.80;72.50;;;;;;5114199;27;20080;-67
2022/12/12 07:53:50;;;;;;;25.07;13.20;;;2.80;72.50;;;;;;5111028;28;20111;-68
2022/12/12 07:56:17;;;;;;;20.57;12.50;;;2.80;72.50;;;;;;5096845;28;20046;-67
2022/12/12 07:58:43;;;;;;;22.23;13.00;;;2.80;72.60;;;;;;5110401;28;20344;-67
2022/12/12 08:01:13;;;;;;;26.90;14.03;;;2.80;72.60;;;;;;5099295;28;20028;-67
2022/12/12 08:03:39;;;;;;;24.27;13.57;;;2.80;72.60;;;;;;5113592;28;20020;-67
2022/12/12 08:06:06;;;;;;;24.53;13.17;;;2.80;72.60;;;;;;5112365;28;20111;-67
2022/12/12 08:08:32;;;;;;;25.93;13.83;;;2.90;72.60;;;;;;5109701;28;20024;-66
2022/12/12 08:10:57;;;;;;;25.57;13.13;;;2.90;72.60;;;;;;5119587;28;20043;-67
2022/12/12 08:13:23;;;;;;;25.63;13.33;;;2.90;72.60;;;;;;5105277;28;20039;-67
2022/12/12 08:15:49;;;;;;;23.47;12.50;;;2.90;72.60;;;;;;5107886;28;20028;-67
2022/12/12 08:18:14;;;;;;;24.27;13.13;;;2.90;72.70;;;;;;5109388;28;20176;-67
2022/12/12 08:20:40;;;;;;;23.60;14.07;;;2.90;72.70;;;;;;5116316;27;20466;-67
2022/12/12 08:23:06;;;;;;;24.70;13.90;;;2.90;72.60;;;;;;5099734;28;20036;-67
2022/12/12 08:25:34;;;;;;;26.90;13.63;;;2.90;72.70;;;;;;5109750;28;20394;-67
2022/12/12 08:28:00;;;;;;;23.90;13.87;;;2.90;72.60;;;;;;5102695;27;20028;-65
2022/12/12 08:30:26;;;;;;;27.90;14.83;;;2.90;72.60;;;;;;5102942;28;20495;-66
2022/12/12 08:32:51;;;;;;;26.50;14.87;;;3.00;72.60;;;;;;5107676;28;20487;-65
2022/12/12 08:35:17;;;;;;;23.73;13.07;;;3.00;72.40;;;;;;5113507;28;20059;-65
2022/12/12 08:37:43;;;;;;;25.10;13.40;;;3.00;72.30;;;;;;5100838;28;20027;-65
2022/12/12 08:40:09;;;;;;;25.97;14.30;;;3.10;72.30;;;;;;5115626;28;20046;-65
2022/12/12 08:42:34;;;;;;;24.00;12.93;;;3.10;72.10;;;;;;5101997;28;20031;-65
2022/12/12 08:45:00;;;;;;;25.10;13.03;;;3.10;72.00;;;;;;5110592;28;20076;-66
2022/12/12 08:47:26;;;;;;;26.23;13.87;;;3.20;72.00;;;;;;5112805;28;20034;-66
2022/12/12 08:49:51;;;;;;;23.37;13.20;;;3.20;71.90;;;;;;5100476;28;20086;-65
2022/12/12 08:52:17;;;;;;;28.57;14.03;;;3.30;71.70;;;;;;5106827;27;20032;-65
2022/12/12 08:54:43;;;;;;;25.80;14.93;;;3.30;71.60;;;;;;5114059;28;20062;-65
2022/12/12 08:57:08;;;;;;;23.10;13.47;;;3.30;71.50;;;;;;5116140;28;20035;-65
2022/12/12 08:59:34;;;;;;;24.63;13.70;;;3.40;71.50;;;;;;5126126;27;20176;-65
2022/12/12 09:02:00;;;;;;;25.07;13.90;;;3.40;71.50;;;;;;5113671;28;20042;-65
2022/12/12 09:04:26;;;;;;;24.63;12.70;;;3.40;71.40;;;;;;5104021;28;20028;-66
2022/12/12 09:06:51;;;;;;;24.40;12.90;;;3.50;71.40;;;;;;5089163;28;20031;-66
2022/12/12 09:09:17;;;;;;;27.87;14.93;;;3.50;71.20;;;;;;5103616;28;20023;-66
2022/12/12 09:11:43;;;;;;;25.10;13.90;;;3.60;71.20;;;;;;5112828;28;20085;-66
2022/12/12 09:14:08;;;;;;;25.30;13.93;;;3.60;71.00;;;;;;5106371;28;20114;-66
2022/12/12 09:16:34;;;;;;;25.33;14.00;;;3.70;70.90;;;;;;5108701;27;20177;-66
2022/12/12 09:19:00;;;;;;;23.40;12.97;;;3.60;70.80;;;;;;5105866;28;20063;-66
2022/12/12 09:21:26;;;;;;;24.73;14.67;;;3.60;70.70;;;;;;5095619;28;20115;-66
2022/12/12 09:23:51;;;;;;;25.23;13.73;;;3.70;70.70;;;;;;5104149;28;20123;-66
2022/12/12 09:26:17;;;;;;;27.97;14.07;;;3.70;70.60;;;;;;5104121;28;20023;-66
2022/12/12 09:28:43;;;;;;;28.17;14.40;;;3.70;70.60;;;;;;5108625;28;20076;-67
2022/12/12 09:31:11;;;;;;;27.53;15.17;;;3.70;70.50;;;;;;5101599;28;20031;-68
2022/12/12 09:33:37;;;;;;;27.57;13.53;;;3.70;70.40;;;;;;5098524;28;20062;-66
2022/12/12 09:36:06;;;;;;;28.20;14.07;;;3.70;70.40;;;;;;5111324;28;20441;-65
2022/12/12 09:38:32;;;;;;;27.17;13.33;;;3.70;70.40;;;;;;5100521;28;20032;-65
2022/12/12 09:41:01;;;;;;;32.43;14.70;;;3.70;70.40;;;;;;5111660;28;20052;-65
2022/12/12 09:43:33;;;;;;;27.53;14.40;;;3.70;70.30;;;;;;5102027;28;20370;-65
2022/12/12 09:46:01;;;;;;;29.63;14.03;;;3.70;70.30;;;;;;5100929;28;20024;-65
2022/12/12 09:48:41;;;;;;;27.53;15.33;;;3.70;70.40;;;;;;5114675;28;20031;-65
2022/12/12 09:51:09;;;;;;;27.40;14.90;;;3.60;70.20;;;;;;5096510;28;20040;-65
2022/12/12 09:53:36;;;;;;;29.63;14.20;;;3.60;70.20;;;;;;5096255;28;20027;-65
2022/12/12 09:56:23;;;;;;;26.57;13.97;;;3.70;70.20;;;;;;5114222;28;20031;-65
2022/12/12 09:58:57;;;;;;;30.33;13.27;;;3.80;70.00;;;;;;5114759;28;20031;-65
2022/12/12 10:02:00;;;;;;;25.30;12.87;;;3.80;69.80;;;;;;5112498;28;20066;-65
2022/12/12 10:04:39;;;;;;;29.27;14.63;;;4.00;69.60;;;;;;5112004;28;20024;-65
2022/12/12 10:07:18;;;;;;;27.50;13.53;;;4.20;69.20;;;;;;5101040;28;20047;-65
2022/12/12 10:09:52;;;;;;;26.20;13.00;;;4.40;69.40;;;;;;5099977;28;20069;-65
2022/12/12 10:12:20;;;;;;;25.80;14.10;;;4.60;68.40;;;;;;5117119;27;20092;-65
2022/12/12 10:14:50;;;;;;;24.97;14.00;;;4.70;67.90;;;;;;5112211;28;20032;-65
2022/12/12 10:17:39;;;;;;;24.73;13.53;;;4.90;67.60;;;;;;5101358;28;20044;-64
2022/12/12 10:20:21;;;;;;;26.63;13.63;;;5.10;67.20;;;;;;5106919;28;20036;-64
2022/12/12 10:23:14;;;;;;;26.23;12.63;;;5.20;66.90;;;;;;5101248;28;20338;-64
2022/12/12 10:25:52;;;;;;;25.03;13.67;;;5.30;66.60;;;;;;5095335;28;20039;-65
2022/12/12 10:28:24;;;;;;;23.17;12.87;;;5.40;66.40;;;;;;5097661;28;20369;-65
2022/12/12 10:31:23;;;;;;;23.70;13.90;;;5.50;66.10;;;;;;5098076;28;20035;-65
2022/12/12 10:34:11;;;;;;;25.83;13.93;;;5.60;65.80;;;;;;5101156;28;20032;-65
2022/12/12 10:36:48;;;;;;;23.27;12.73;;;5.60;65.60;;;;;;5109780;28;20076;-64
2022/12/12 10:39:49;;;;;;;26.07;13.97;;;5.70;65.60;;;;;;5111467;28;20182;-65
2022/12/12 10:42:42;;;;;;;23.97;12.40;;;5.70;65.40;;;;;;5060321;28;20134;-65
2022/12/12 10:45:47;;;;;;;25.33;14.77;;;5.80;65.20;;;;;;5087883;28;20115;-65
2022/12/12 10:48:13;;;;;;;22.57;12.47;;;5.90;65.00;;;;;;5109498;28;20075;-66
2022/12/12 10:51:03;;;;;;;24.40;11.47;;;5.90;64.80;;;;;;5113296;28;20110;-65
2022/12/12 10:53:31;;;;;;;27.33;14.17;;;5.90;64.50;;;;;;5095236;28;20121;-65
2022/12/12 10:56:23;;;;;;;23.77;12.97;;;6.00;64.50;;;;;;5105459;28;20444;-65
2022/12/12 10:58:58;;;;;;;24.60;13.03;;;6.00;64.20;;;;;;5111164;28;20093;-65
2022/12/12 11:01:34;;;;;;;23.87;12.00;;;6.10;64.10;;;;;;5106068;28;20020;-65
2022/12/12 11:04:01;;;;;;;21.97;11.90;;;6.10;63.90;;;;;;5097580;28;20412;-65
2022/12/12 11:06:31;;;;;;;22.90;12.33;;;6.10;63.90;;;;;;5107737;28;20068;-65
2022/12/12 11:09:05;;;;;;;24.00;12.85;;;6.10;63.70;;;;;;5111948;28;20031;-65
2022/12/12 11:11:32;;;;;;;23.23;11.57;;;6.00;63.70;;;;;;5108384;28;20348;-65
2022/12/12 11:14:01;;;;;;;21.60;11.57;;;5.90;63.70;;;;;;5107400;27;20039;-65
2022/12/12 11:16:29;;;;;;;24.37;13.10;;;5.90;63.70;;;;;;5107106;28;20111;-69
2022/12/12 11:19:20;;;;;;;26.27;12.40;;;5.90;63.70;;;;;;5101062;28;20428;-65
2022/12/12 11:21:47;;;;;;;24.45;11.98;;;5.80;63.70;;;;;;5103305;28;20031;-65
2022/12/12 11:24:17;;;;;;;22.57;11.80;;;5.70;63.90;;;;;;5102471;28;20072;-65
2022/12/12 11:27:06;;;;;;;22.17;12.23;;;5.60;63.90;;;;;;5102649;28;20341;-65
2022/12/12 11:29:54;;;;;;;24.37;13.07;;;5.50;63.90;;;;;;5089986;28;20117;-64
2022/12/12 11:32:30;;;;;;;21.70;10.77;;;5.40;64.00;;;;;;5105566;28;20046;-64
2022/12/12 11:35:00;;;;;;;22.43;11.63;;;5.30;64.10;;;;;;5103568;28;20024;-65
2022/12/12 11:37:36;;;;;;;19.30;10.23;;;5.30;64.10;;;;;;5106437;28;20032;-65
2022/12/12 11:40:02;;;;;;;23.73;12.30;;;5.20;64.10;;;;;;5105371;28;20050;-65
2022/12/12 11:42:30;;;;;;;21.33;12.30;;;5.10;64.10;;;;;;5108084;28;20394;-66
2022/12/12 11:45:19;;;;;;;21.43;11.57;;;5.10;64.20;;;;;;5107910;28;20114;-66
2022/12/12 11:47:46;;;;;;;20.07;10.23;;;5.00;64.20;;;;;;5108851;28;20123;-66
2022/12/12 11:50:24;;;;;;;20.10;10.87;;;5.00;64.30;;;;;;5110110;28;20065;-65
2022/12/12 11:52:56;;;;;;;20.43;11.07;;;4.90;64.10;;;;;;5106463;28;20094;-66
2022/12/12 11:55:45;;;;;;;22.33;11.30;;;4.90;64.20;;;;;;5102528;28;20028;-65
2022/12/12 11:58:43;;;;;;;20.70;10.53;;;4.90;64.20;;;;;;5098292;28;20032;-65
2022/12/12 12:01:18;;;;;;;19.70;10.00;;;4.90;64.30;;;;;;5027602;28;20096;-65
2022/12/12 12:04:04;;;;;;;25.17;10.87;;;4.80;65.00;;;;;;5030855;28;20033;-66
2022/12/12 12:06:47;;;;;;;23.40;10.50;;;4.80;64.30;;;;;;5029260;28;20100;-67
2022/12/12 12:09:33;;;;;;;20.43;10.57;;;4.70;64.20;;;;;;5030568;28;20450;-66
2022/12/12 12:12:10;;;;;;;19.03;9.43;;;4.70;64.20;;;;;;5032422;28;20493;-66
2022/12/12 12:15:02;;;;;;;20.20;10.10;;;4.70;64.20;;;;;;5031754;28;20034;-66
2022/12/12 12:18:04;;;;;;;21.70;10.13;;;4.70;64.10;;;;;;5015314;28;20196;-66
2022/12/12 12:20:40;;;;;;;20.80;10.35;;;4.60;64.10;;;;;;5015542;28;20302;-66
2022/12/12 12:23:06;;;;;;;20.40;10.37;;;4.60;64.20;;;;;;5032443;28;20366;-66
2022/12/12 12:25:58;;;;;;;22.17;10.37;;;4.60;64.30;;;;;;5032654;28;20042;-66
2022/12/12 12:28:53;;;;;;;19.33;9.73;;;4.60;64.30;;;;;;5031783;28;20038;-66
2022/12/12 12:31:19;;;;;;;17.03;9.90;;;4.60;64.40;;;;;;5032103;28;20041;-66
2022/12/12 12:34:13;;;;;;;21.20;10.87;;;4.60;64.40;;;;;;5031633;28;20029;-66
2022/12/12 12:36:58;;;;;;;19.30;10.10;;;4.60;64.40;;;;;;5023836;28;20049;-66
2022/12/12 12:39:54;;;;;;;19.80;9.63;;;4.60;64.30;;;;;;5107560;28;20028;-66
2022/12/12 12:42:48;;;;;;;17.07;8.83;;;4.60;64.30;;;;;;5099908;28;20031;-66
2022/12/12 12:45:44;;;;;;;17.00;8.90;;;4.60;64.20;;;;;;5100815;28;20428;-66
2022/12/12 12:48:51;;;;;;;16.53;8.43;;;4.60;64.30;;;;;;5108325;28;20050;-66
2022/12/12 12:51:30;;;;;;;19.87;9.93;;;4.60;64.20;;;;;;5098351;28;20444;-66
2022/12/12 12:54:04;;;;;;;21.37;10.43;;;4.60;64.20;;;;;;5105644;28;20024;-65
2022/12/12 12:56:39;;;;;;;22.93;9.60;;;4.60;64.20;;;;;;5094033;28;20080;-65
2022/12/12 12:59:11;;;;;;;17.73;8.37;;;4.60;64.20;;;;;;5115639;28;20079;-66
2022/12/12 13:01:44;;;;;;;19.57;9.20;;;4.60;64.10;;;;;;5100359;28;20322;-66
2022/12/12 13:04:09;;;;;;;19.83;9.50;;;4.60;64.10;;;;;;5106285;28;20081;-66
2022/12/12 13:06:56;;;;;;;19.33;9.00;;;4.60;64.10;;;;;;5099034;28;20028;-66
2022/12/12 13:09:34;;;;;;;18.10;9.10;;;4.60;64.20;;;;;;5104043;28;20065;-66
2022/12/12 13:12:37;;;;;;;17.53;8.43;;;4.50;64.20;;;;;;5113342;28;20036;-66
2022/12/12 13:15:30;;;;;;;18.27;9.07;;;4.50;64.20;;;;;;5107758;28;20456;-66
2022/12/12 13:18:12;;;;;;;;;;;4.50;64.40;;;;;;5100115;28;20055;-66